Time;durP1;ratioP1;P1;durP2;ratioP2;P2;SDS_P1;SDS_P2;PMS_P1;PMS_P2;Temp;Humidity;BMP_temperature;BMP_pressure;BME280_temperature;BME280_humidity;BME280_pressure;Samples;Min_cycle;Max_cycle;Signal;HPM_P1;HPM_P2
2022/04/03 00:01:00;;;;;;;18.88;4.78;;;;;;;6.57;49.40;100755.28;5019682;28;20321;-62
2022/04/03 00:03:30;;;;;;;27.40;4.88;;;;;;;6.70;48.97;100757.09;5020024;28;20064;-61
2022/04/03 00:06:03;;;;;;;16.80;4.43;;;;;;;6.82;48.91;100757.19;5019803;28;20136;-61
2022/04/03 00:08:34;;;;;;;15.52;5.00;;;;;;;6.78;48.49;100747.63;5014714;28;20176;-63
2022/04/03 00:11:05;;;;;;;11.27;4.68;;;;;;;6.62;48.78;100733.66;5020387;28;20058;-61
2022/04/03 00:13:36;;;;;;;13.40;4.80;;;;;;;6.70;49.02;100749.31;5020608;28;20373;-60
2022/04/03 00:16:08;;;;;;;22.45;5.22;;;;;;;6.76;48.54;100741.53;5020786;28;20088;-62
2022/04/03 00:18:39;;;;;;;10.90;4.43;;;;;;;6.80;48.68;100740.72;5015800;28;20054;-61
2022/04/03 00:21:14;;;;;;;12.90;4.85;;;;;;;6.79;47.90;100741.59;5009681;28;20202;-60
2022/04/03 00:23:45;;;;;;;16.25;5.03;;;;;;;6.86;47.95;100738.16;5000966;28;20050;-61
2022/04/03 00:26:16;;;;;;;14.32;4.70;;;;;;;6.81;47.29;100726.84;5000715;28;20114;-63
2022/04/03 00:28:47;;;;;;;11.18;4.47;;;;;;;7.04;46.92;100731.31;5000632;28;20085;-61
2022/04/03 00:31:18;;;;;;;11.20;4.20;;;;;;;7.16;46.99;100736.59;5000050;28;20078;-63
2022/04/03 00:33:48;;;;;;;18.30;4.93;;;;;;;7.18;46.97;100732.25;5000621;28;20058;-62
2022/04/03 00:36:21;;;;;;;12.50;4.80;;;;;;;7.27;46.31;100734.91;5000235;28;20064;-62
2022/04/03 00:38:51;;;;;;;14.85;4.95;;;;;;;7.37;46.93;100743.63;4999717;28;20345;-62
2022/04/03 00:41:23;;;;;;;11.85;5.18;;;;;;;7.57;46.34;100743.72;5000026;28;20109;-62
2022/04/03 00:43:55;;;;;;;14.35;5.65;;;;;;;7.64;46.31;100761.06;5019553;28;20107;-65
2022/04/03 00:46:28;;;;;;;12.25;4.53;;;;;;;7.77;45.84;100768.03;5039481;28;20433;-64
2022/04/03 00:49:01;;;;;;;13.25;4.65;;;;;;;7.81;45.50;100768.06;5032863;28;20113;-63
2022/04/03 00:51:34;;;;;;;13.23;5.28;;;;;;;7.87;45.61;100768.09;5018760;28;20308;-63
2022/04/03 00:54:06;;;;;;;16.08;5.32;;;;;;;7.88;45.24;100769.81;5016828;28;20252;-66
2022/04/03 00:56:37;;;;;;;13.02;4.40;;;;;;;7.96;45.13;100770.69;5017994;28;20054;-65
2022/04/03 00:59:09;;;;;;;24.30;5.80;;;;;;;8.17;44.07;100772.50;5018715;28;20042;-64
2022/04/03 01:01:41;;;;;;;12.63;4.88;;;;;;;8.23;43.85;100782.03;5018735;28;20052;-63
2022/04/03 01:04:13;;;;;;;15.88;4.82;;;;;;;8.32;43.97;100779.44;5018729;28;20221;-66
2022/04/03 01:06:45;;;;;;;11.05;4.78;;;;;;;8.47;43.01;100774.28;5018931;28;20116;-62
2022/04/03 01:09:16;;;;;;;14.73;5.35;;;;;;;8.66;42.75;100771.66;5013197;28;20117;-66
2022/04/03 01:11:47;;;;;;;30.92;4.90;;;;;;;8.83;42.06;100764.72;5010255;28;20057;-66
2022/04/03 01:14:32;;;;;;;8.32;4.60;;;;;;;8.87;41.08;100761.25;5010379;28;20114;-65
2022/04/03 01:17:03;;;;;;;17.65;5.10;;;;;;;8.72;40.47;100745.63;4999756;28;20109;-64
2022/04/03 01:19:34;;;;;;;10.15;4.63;;;;;;;8.73;39.74;100757.78;4999725;28;20069;-64
2022/04/03 01:22:07;;;;;;;13.50;4.18;;;;;;;8.74;40.21;100760.38;4999617;28;20113;-66
2022/04/03 01:24:37;;;;;;;8.48;5.13;;;;;;;8.81;39.40;100766.44;4999634;28;20078;-65
2022/04/03 01:27:10;;;;;;;11.63;5.18;;;;;;;8.87;38.39;100756.03;5019870;28;20045;-66
2022/04/03 01:29:41;;;;;;;9.00;4.00;;;;;;;8.87;39.05;100763.84;5025330;28;20100;-63
2022/04/03 01:32:12;;;;;;;12.55;4.50;;;;;;;8.94;37.67;100762.97;5025265;28;20137;-66
2022/04/03 01:34:42;;;;;;;9.40;4.20;;;;;;;8.80;37.67;100730.84;5025706;28;20085;-66
2022/04/03 01:37:13;;;;;;;7.82;4.20;;;;;;;9.02;39.12;100770.78;5025387;28;20061;-66
2022/04/03 01:39:44;;;;;;;7.18;4.05;;;;;;;9.02;37.01;100753.38;5024862;28;20054;-65
2022/04/03 01:42:17;;;;;;;6.40;4.20;;;;;;;9.02;36.58;100761.22;5024890;28;20054;-65
2022/04/03 01:44:47;;;;;;;9.25;4.63;;;;;;;8.77;34.38;100723.03;5024584;28;20054;-63
2022/04/03 01:47:19;;;;;;;9.77;4.55;;;;;;;8.83;36.77;100723.00;5025374;28;20092;-64
2022/04/03 01:49:49;;;;;;;12.70;4.30;;;;;;;9.03;36.54;100749.03;5024869;28;20124;-64
2022/04/03 01:52:20;;;;;;;8.82;4.38;;;;;;;9.01;36.58;100761.19;5024756;28;20055;-64
2022/04/03 01:54:51;;;;;;;7.07;4.10;;;;;;;8.95;36.13;100749.06;5024517;28;20116;-63
2022/04/03 01:57:23;;;;;;;23.38;5.00;;;;;;;8.88;34.14;100731.69;5024707;28;20145;-65
2022/04/03 01:59:54;;;;;;;10.18;4.60;;;;;;;8.97;34.56;100752.53;5024920;28;20058;-63
2022/04/03 02:02:25;;;;;;;9.38;4.35;;;;;;;8.97;36.40;100752.53;5024640;28;20045;-63
2022/04/03 02:04:56;;;;;;;10.30;4.20;;;;;;;9.03;37.11;100751.63;5024655;28;20046;-63
2022/04/03 02:07:28;;;;;;;12.98;5.18;;;;;;;9.00;35.66;100742.09;5024733;28;20120;-63
2022/04/03 02:09:59;;;;;;;12.90;4.93;;;;;;;9.01;36.09;100754.28;5024558;28;20060;-64
2022/04/03 02:12:32;;;;;;;10.70;5.68;;;;;;;8.93;35.44;100724.72;5024566;28;20641;-63
2022/04/03 02:15:05;;;;;;;13.05;4.93;;;;;;;8.97;36.13;100738.63;5024557;28;20191;-63
2022/04/03 02:17:36;;;;;;;9.07;4.57;;;;;;;9.01;37.07;100743.84;5023794;28;20136;-63
2022/04/03 02:20:09;;;;;;;7.95;4.82;;;;;;;9.10;35.95;100734.25;5023202;28;20073;-62
2022/04/03 02:22:39;;;;;;;9.95;4.85;;;;;;;9.14;36.73;100730.78;5023104;28;20108;-62
2022/04/03 02:25:11;;;;;;;11.30;5.35;;;;;;;9.22;36.57;100736.81;5024369;28;20048;-63
2022/04/03 02:27:48;;;;;;;9.35;5.20;;;;;;;9.25;37.24;100731.59;5024115;28;20076;-60
2022/04/03 02:30:19;;;;;;;8.13;4.75;;;;;;;9.25;36.42;100736.81;5023699;28;20049;-62
2022/04/03 02:32:50;;;;;;;13.70;4.90;;;;;;;9.33;36.81;100745.47;5023109;28;20057;-60
2022/04/03 02:35:21;;;;;;;8.48;4.63;;;;;;;9.28;35.95;100731.56;5023482;28;20121;-62
2022/04/03 02:37:53;;;;;;;7.93;4.65;;;;;;;9.32;35.72;100738.53;5024505;28;20052;-61
2022/04/03 02:40:23;;;;;;;7.97;4.40;;;;;;;9.34;35.96;100734.19;5024300;28;20064;-62
2022/04/03 02:42:56;;;;;;;14.45;4.63;;;;;;;9.30;34.84;100729.84;5024111;28;20053;-65
2022/04/03 02:45:26;;;;;;;13.02;4.88;;;;;;;9.30;36.58;100729.84;5024114;28;20120;-64
2022/04/03 02:47:58;;;;;;;10.20;4.90;;;;;;;9.03;36.92;100666.47;5023938;28;20068;-64
2022/04/03 02:50:29;;;;;;;9.82;5.38;;;;;;;9.44;36.51;100728.06;5023949;28;20061;-65
2022/04/03 02:53:00;;;;;;;9.32;4.70;;;;;;;9.43;35.28;100726.28;5023865;28;20348;-62
2022/04/03 02:55:31;;;;;;;17.70;5.18;;;;;;;9.39;36.10;100724.59;5023998;28;20114;-62
2022/04/03 02:58:04;;;;;;;11.75;5.13;;;;;;;9.28;36.56;100723.75;5023528;28;20041;-62
2022/04/03 03:00:35;;;;;;;13.85;4.75;;;;;;;9.27;36.16;100724.63;5023697;28;20330;-64
2022/04/03 03:03:07;;;;;;;15.63;4.80;;;;;;;9.21;36.26;100724.66;5023108;28;20347;-63
2022/04/03 03:05:41;;;;;;;18.17;5.53;;;;;;;9.18;36.27;100719.44;5023872;28;20056;-63
2022/04/03 03:08:12;;;;;;;12.63;4.90;;;;;;;9.17;36.69;100715.13;5024287;28;20121;-62
2022/04/03 03:10:43;;;;;;;16.02;4.60;;;;;;;9.19;36.06;100721.19;5024063;28;20248;-61
2022/04/03 03:13:15;;;;;;;13.20;4.43;;;;;;;9.21;36.75;100722.03;5024187;28;20045;-64
2022/04/03 03:15:46;;;;;;;9.38;4.95;;;;;;;9.19;36.62;100726.41;5023612;28;20049;-64
2022/04/03 03:18:17;;;;;;;11.15;4.57;;;;;;;9.24;36.91;100724.66;5023973;28;20123;-62
2022/04/03 03:20:48;;;;;;;9.02;4.68;;;;;;;9.28;36.72;100721.16;5023561;28;20337;-62
2022/04/03 03:23:19;;;;;;;7.97;4.70;;;;;;;9.35;36.24;100722.00;5024099;28;20057;-62
2022/04/03 03:25:50;;;;;;;9.98;4.95;;;;;;;9.40;35.71;100725.47;5023585;28;20391;-63
2022/04/03 03:28:22;;;;;;;12.23;4.70;;;;;;;9.52;35.88;100719.31;5023965;28;20101;-63
2022/04/03 03:30:53;;;;;;;12.20;5.07;;;;;;;9.56;36.31;100718.41;5023589;28;20109;-60
2022/04/03 03:33:23;;;;;;;7.88;4.35;;;;;;;9.56;36.42;100716.69;5023493;28;20053;-62
2022/04/03 03:35:55;;;;;;;11.20;5.22;;;;;;;9.55;35.45;100714.09;5023303;28;20061;-61
2022/04/03 03:38:25;;;;;;;14.32;5.72;;;;;;;9.56;34.95;100716.69;5022887;28;20129;-64
2022/04/03 03:40:56;;;;;;;10.77;4.93;;;;;;;9.61;35.16;100711.44;5023827;28;20076;-60
2022/04/03 03:43:28;;;;;;;9.88;5.15;;;;;;;9.70;36.37;100714.00;5022310;28;20104;-60
2022/04/03 03:45:59;;;;;;;11.82;5.32;;;;;;;9.69;36.16;100707.06;5023419;28;20104;-61
2022/04/03 03:48:30;;;;;;;14.50;6.50;;;;;;;9.65;35.47;100710.56;5023230;28;20077;-60
2022/04/03 03:51:01;;;;;;;11.10;5.95;;;;;;;9.71;36.15;100721.84;5023362;28;20109;-61
2022/04/03 03:53:32;;;;;;;14.35;5.70;;;;;;;9.75;36.00;100727.88;5013445;28;20145;-60
2022/04/03 03:56:03;;;;;;;11.35;6.60;;;;;;;9.83;36.04;100731.31;5023492;28;20081;-62
2022/04/03 03:58:35;;;;;;;12.75;6.45;;;;;;;9.87;35.74;100727.81;5023372;28;20336;-60
2022/04/03 04:01:06;;;;;;;12.57;5.90;;;;;;;9.86;34.96;100728.72;5023125;28;20382;-60
2022/04/03 04:03:40;;;;;;;33.58;11.68;;;;;;;9.81;36.00;100726.97;5023285;28;20048;-60
2022/04/03 04:06:11;;;;;;;13.52;4.97;;;;;;;9.85;36.09;100729.56;5023291;28;20077;-59
2022/04/03 04:08:41;;;;;;;13.35;6.47;;;;;;;9.83;35.02;100736.53;5023535;28;20069;-60
2022/04/03 04:11:12;;;;;;;12.55;5.07;;;;;;;9.85;35.30;100724.34;5023124;28;20117;-60
2022/04/03 04:13:44;;;;;;;10.82;5.25;;;;;;;9.87;35.47;100737.41;5024077;28;20222;-60
2022/04/03 04:16:15;;;;;;;10.27;5.47;;;;;;;9.83;35.30;100731.31;5026973;28;20321;-60
2022/04/03 04:18:47;;;;;;;17.10;6.43;;;;;;;9.74;35.79;100731.38;5026844;28;20049;-61
2022/04/03 04:21:17;;;;;;;14.98;5.47;;;;;;;9.63;35.20;100714.91;5026833;28;20053;-60
2022/04/03 04:23:48;;;;;;;14.88;4.97;;;;;;;9.75;35.69;100727.88;5026545;28;20125;-60
2022/04/03 04:26:19;;;;;;;24.00;6.50;;;;;;;9.75;35.49;100733.09;5026474;28;20048;-60
2022/04/03 04:28:51;;;;;;;15.45;5.82;;;;;;;9.59;35.23;100721.03;5026487;28;20053;-60
2022/04/03 04:31:22;;;;;;;15.98;5.97;;;;;;;9.66;35.02;100725.31;5024704;28;20371;-61
2022/04/03 04:33:53;;;;;;;15.50;5.55;;;;;;;9.45;35.26;100687.19;5025640;28;20111;-60
2022/04/03 04:36:24;;;;;;;18.33;6.40;;;;;;;9.74;35.43;100731.38;5025495;28;20342;-61
2022/04/03 04:39:00;;;;;;;16.02;5.60;;;;;;;9.74;35.29;100731.38;5025594;28;20053;-60
2022/04/03 04:41:31;;;;;;;16.17;5.80;;;;;;;9.75;34.50;100722.66;5025601;28;20068;-61
2022/04/03 04:44:04;;;;;;;13.15;5.90;;;;;;;9.79;35.24;100734.84;5026434;28;20060;-61
2022/04/03 04:46:35;;;;;;;17.40;5.80;;;;;;;9.78;35.08;100738.31;5027207;28;20053;-61
2022/04/03 04:49:06;;;;;;;13.70;5.65;;;;;;;9.78;35.37;100721.78;5025207;28;20053;-61
2022/04/03 04:51:36;;;;;;;25.23;7.78;;;;;;;9.87;35.86;100735.66;5025154;28;20235;-60
2022/04/03 04:54:08;;;;;;;20.33;7.07;;;;;;;9.54;35.97;100675.84;5025348;28;20124;-60
2022/04/03 04:56:39;;;;;;;12.00;4.90;;;;;;;9.49;35.24;100676.72;5026902;28;20344;-60
2022/04/03 04:59:12;;;;;;;18.75;5.40;;;;;;;9.88;35.36;100739.13;5027100;28;20049;-60
2022/04/03 05:01:43;;;;;;;16.45;6.22;;;;;;;9.83;35.57;100741.75;5025726;28;20053;-61
2022/04/03 05:04:15;;;;;;;15.32;5.70;;;;;;;9.85;35.95;100742.63;5026397;28;20065;-60
2022/04/03 05:06:46;;;;;;;17.00;6.07;;;;;;;9.84;35.34;100753.94;5026001;28;20340;-60
2022/04/03 05:09:17;;;;;;;17.88;6.35;;;;;;;9.76;35.12;100744.41;5025961;28;20324;-60
2022/04/03 05:11:49;;;;;;;22.23;5.97;;;;;;;9.66;34.51;100740.97;5026555;28;20045;-61
2022/04/03 05:14:22;;;;;;;15.10;6.03;;;;;;;9.63;35.27;100743.59;5025595;28;20045;-60
2022/04/03 05:16:53;;;;;;;20.88;6.53;;;;;;;9.61;35.23;100745.34;5025841;28;20049;-60
2022/04/03 05:19:24;;;;;;;15.35;6.03;;;;;;;9.65;35.91;100744.47;5025635;28;20255;-60
2022/04/03 05:21:55;;;;;;;14.13;5.80;;;;;;;9.64;36.03;100734.91;5015769;28;20360;-60
2022/04/03 05:24:26;;;;;;;10.68;5.47;;;;;;;9.70;36.46;100745.31;5025447;28;20113;-61
2022/04/03 05:26:57;;;;;;;12.75;5.63;;;;;;;9.56;36.17;100711.47;5025487;28;20061;-60
2022/04/03 05:29:30;;;;;;;10.02;5.32;;;;;;;9.69;36.17;100743.59;5025615;28;20068;-60
2022/04/03 05:32:01;;;;;;;20.40;5.60;;;;;;;9.60;36.53;100738.41;5025249;28;20054;-60
2022/04/03 05:34:32;;;;;;;17.30;5.53;;;;;;;9.63;36.42;100738.38;5025363;28;20490;-60
2022/04/03 05:37:03;;;;;;;12.70;5.38;;;;;;;9.60;36.76;100743.63;5025058;28;20171;-59
2022/04/03 05:39:34;;;;;;;13.18;5.82;;;;;;;9.53;36.42;100747.13;5024515;28;20496;-60
2022/04/03 05:42:07;;;;;;;9.57;5.63;;;;;;;9.60;36.28;100741.88;5024376;28;20168;-60
2022/04/03 05:44:39;;;;;;;79.13;10.75;;;;;;;9.64;36.64;100732.31;5024262;28;20045;-60
2022/04/03 05:47:10;;;;;;;11.98;6.00;;;;;;;9.61;36.22;100741.03;5025372;28;20148;-60
2022/04/03 05:49:41;;;;;;;10.10;5.50;;;;;;;9.60;36.44;100754.06;5024879;28;20076;-60
2022/04/03 05:52:12;;;;;;;11.40;5.75;;;;;;;9.54;36.40;100759.31;5025003;28;20072;-60
2022/04/03 05:54:43;;;;;;;13.50;5.75;;;;;;;9.40;36.20;100748.94;5024878;28;20100;-60
2022/04/03 05:57:14;;;;;;;16.80;5.85;;;;;;;9.36;36.79;100750.69;5024892;28;20067;-60
2022/04/03 05:59:46;;;;;;;14.88;5.85;;;;;;;9.29;37.19;100762.00;5024841;28;20120;-61
2022/04/03 06:02:17;;;;;;;16.52;6.03;;;;;;;9.23;37.04;100743.75;5024895;28;20061;-60
2022/04/03 06:04:48;;;;;;;13.68;5.93;;;;;;;9.20;36.60;100738.56;5023930;28;20046;-60
2022/04/03 06:07:18;;;;;;;14.65;5.65;;;;;;;9.16;36.64;100739.44;5023673;28;20079;-60
2022/04/03 06:09:49;;;;;;;11.40;5.40;;;;;;;9.03;36.30;100736.84;5024373;28;20328;-61
2022/04/03 06:12:20;;;;;;;11.63;6.15;;;;;;;9.01;36.58;100749.06;5023725;28;20413;-62
2022/04/03 06:14:52;;;;;;;17.67;6.13;;;;;;;8.39;36.26;100653.59;5023609;28;20054;-59
2022/04/03 06:17:23;;;;;;;14.88;5.75;;;;;;;8.85;36.34;100742.13;5023936;28;20443;-60
2022/04/03 06:19:54;;;;;;;13.88;5.55;;;;;;;8.86;35.96;100743.84;5023560;28;20241;-57
2022/04/03 06:22:25;;;;;;;17.25;7.05;;;;;;;8.90;36.15;100740.38;5023698;28;20054;-57
2022/04/03 06:24:55;;;;;;;15.32;5.53;;;;;;;8.87;35.65;100745.59;5023792;28;20060;-58
2022/04/03 06:27:27;;;;;;;13.10;5.65;;;;;;;8.83;36.32;100729.09;5024364;28;20061;-58
2022/04/03 06:29:59;;;;;;;12.70;5.50;;;;;;;8.86;36.36;100741.25;5024356;28;20299;-57
2022/04/03 06:32:30;;;;;;;17.50;6.22;;;;;;;8.89;36.81;100738.66;5024145;28;20054;-58
2022/04/03 06:35:01;;;;;;;14.10;5.80;;;;;;;9.00;37.95;100747.31;5024051;28;20053;-58
2022/04/03 06:37:31;;;;;;;15.85;6.05;;;;;;;9.02;37.03;100749.91;5023566;28;20302;-57
2022/04/03 06:40:02;;;;;;;11.13;5.50;;;;;;;8.91;37.09;100742.13;5024187;28;20049;-58
2022/04/03 06:42:33;;;;;;;12.20;5.40;;;;;;;8.87;36.18;100740.38;5023795;28;20340;-57
2022/04/03 06:45:07;;;;;;;8.00;4.95;;;;;;;8.72;36.61;100719.56;5024258;28;20113;-56
2022/04/03 06:47:38;;;;;;;16.10;6.40;;;;;;;8.89;36.90;100743.88;5023639;28;20116;-57
2022/04/03 06:50:09;;;;;;;44.28;17.77;;;;;;;8.82;37.78;100731.72;5023848;28;20056;-57
2022/04/03 06:52:40;;;;;;;93.00;35.85;;;;;;;8.15;38.40;100634.50;5023202;28;20415;-57
2022/04/03 06:55:11;;;;;;;33.35;12.35;;;;;;;8.59;38.67;100740.44;5022889;28;20053;-58
2022/04/03 06:57:43;;;;;;;70.45;28.15;;;;;;;8.48;39.16;100742.16;5023052;28;20499;-58
2022/04/03 07:00:16;;;;;;;100.70;36.15;;;;;;;8.36;39.44;100736.91;5023154;28;20117;-58
2022/04/03 07:02:48;;;;;;;51.97;18.73;;;;;;;8.23;39.47;100746.44;5023347;28;20337;-58
2022/04/03 07:05:19;;;;;;;59.92;19.55;;;;;;;8.11;39.60;100739.50;5023319;28;20056;-57
2022/04/03 07:07:53;;;;;;;64.45;24.65;;;;;;;8.06;39.44;100738.59;5023050;28;20060;-59
2022/04/03 07:10:24;;;;;;;93.28;34.80;;;;;;;8.07;39.58;100755.97;5023328;28;20110;-58
2022/04/03 07:12:55;;;;;;;65.88;25.15;;;;;;;8.00;40.44;100764.63;5024101;28;20084;-58
2022/04/03 07:15:27;;;;;;;84.65;28.38;;;;;;;7.90;41.35;100768.09;5024003;28;20049;-58
2022/04/03 07:17:58;;;;;;;57.65;24.80;;;;;;;7.82;41.38;100764.59;5024037;28;20144;-58
2022/04/03 07:20:29;;;;;;;50.20;18.95;;;;;;;7.76;41.54;100766.31;5023337;28;20101;-58
2022/04/03 07:22:59;;;;;;;44.53;18.98;;;;;;;7.43;41.42;100721.97;5023163;28;20409;-58
2022/04/03 07:25:30;;;;;;;23.83;10.75;;;;;;;7.60;41.24;100767.13;5023515;28;20256;-58
2022/04/03 07:28:01;;;;;;;22.45;9.40;;;;;;;7.57;41.20;100774.91;5022136;28;20351;-58
2022/04/03 07:30:33;;;;;;;30.17;10.10;;;;;;;7.50;41.24;100778.34;5023323;28;20081;-58
2022/04/03 07:33:04;;;;;;;24.50;10.02;;;;;;;7.44;41.89;100775.69;5023173;28;20174;-58
2022/04/03 07:35:35;;;;;;;30.80;10.65;;;;;;;7.33;42.05;100776.53;5022707;28;20120;-58
2022/04/03 07:38:06;;;;;;;24.80;8.88;;;;;;;7.26;42.54;100774.78;5022759;28;20057;-58
2022/04/03 07:40:36;;;;;;;21.70;9.85;;;;;;;7.24;42.52;100771.31;5022537;28;20379;-57
2022/04/03 07:43:23;;;;;;;54.55;9.38;;;;;;;6.88;42.73;100720.84;5023177;28;20116;-57
2022/04/03 07:45:56;;;;;;;19.38;7.40;;;;;;;7.05;42.97;100769.44;5022607;28;20122;-57
2022/04/03 07:48:26;;;;;;;19.17;8.23;;;;;;;7.03;43.05;100786.75;5022498;28;20352;-57
2022/04/03 07:50:57;;;;;;;27.88;9.63;;;;;;;6.91;43.50;100787.53;5026564;28;20050;-58
2022/04/03 07:53:34;;;;;;;25.00;9.00;;;;;;;6.83;43.53;100790.06;5027227;28;20092;-58
2022/04/03 07:56:06;;;;;;;32.83;13.10;;;;;;;6.78;43.47;100803.91;5027220;28;20089;-57
2022/04/03 07:58:37;;;;;;;27.45;11.07;;;;;;;6.72;43.76;100796.94;5026221;28;20061;-58
2022/04/03 08:01:09;;;;;;;35.00;10.10;;;;;;;6.63;43.74;100792.53;5026840;28;20052;-57
2022/04/03 08:03:39;;;;;;;19.38;7.95;;;;;;;6.65;44.02;100800.34;5026282;28;20148;-58
2022/04/03 08:06:10;;;;;;;14.05;7.00;;;;;;;6.57;44.74;100799.41;5026974;28;20061;-57
2022/04/03 08:08:41;;;;;;;12.30;5.78;;;;;;;6.51;44.27;100807.13;5027114;28;20130;-58
2022/04/03 08:11:12;;;;;;;21.52;6.78;;;;;;;6.44;44.64;100817.47;5026641;28;20054;-57
2022/04/03 08:13:43;;;;;;;16.67;6.65;;;;;;;6.35;44.96;100812.19;5026567;28;20080;-58
2022/04/03 08:16:15;;;;;;;17.40;6.00;;;;;;;6.28;44.96;100825.94;5026790;28;20365;-57
2022/04/03 08:18:46;;;;;;;13.32;5.43;;;;;;;6.19;45.50;100831.94;5026787;28;20061;-57
2022/04/03 08:21:18;;;;;;;17.10;5.70;;;;;;;6.13;45.78;100833.59;5024716;28;20045;-57
2022/04/03 08:23:49;;;;;;;14.02;5.72;;;;;;;5.77;45.46;100785.59;5025685;28;20092;-57
2022/04/03 08:26:25;;;;;;;27.73;6.03;;;;;;;6.04;46.11;100843.00;5025622;28;20096;-57
2022/04/03 08:28:56;;;;;;;15.80;6.75;;;;;;;6.00;46.19;100843.81;5025488;28;20150;-57
2022/04/03 08:31:29;;;;;;;15.25;5.38;;;;;;;5.97;47.16;100848.97;5025459;28;20428;-55
2022/04/03 08:34:00;;;;;;;15.02;6.20;;;;;;;5.85;47.08;100851.38;5026211;28;20146;-57
2022/04/03 08:36:30;;;;;;;11.00;5.55;;;;;;;5.79;47.24;100852.19;5026606;28;20351;-57
2022/04/03 08:39:01;;;;;;;14.18;5.65;;;;;;;5.80;48.22;100866.03;5026079;28;20111;-57
2022/04/03 08:41:32;;;;;;;12.63;5.95;;;;;;;5.74;48.81;100863.34;5025326;28;20052;-58
2022/04/03 08:44:02;;;;;;;20.55;6.95;;;;;;;5.63;49.26;100861.47;5025805;28;20100;-58
2022/04/03 08:46:35;;;;;;;29.20;8.60;;;;;;;5.34;49.55;100853.31;5025993;28;20077;-58
2022/04/03 08:49:06;;;;;;;20.65;7.47;;;;;;;5.47;49.95;100882.88;5024859;28;20052;-58
2022/04/03 08:51:40;;;;;;;16.58;6.93;;;;;;;5.32;50.31;100872.28;5026037;28;20383;-59
2022/04/03 08:54:11;;;;;;;20.85;8.48;;;;;;;5.18;50.31;100872.94;5025158;28;20073;-58
2022/04/03 08:56:43;;;;;;;17.15;6.60;;;;;;;5.13;50.46;100873.72;5025594;28;20116;-58
2022/04/03 08:59:13;;;;;;;27.73;7.05;;;;;;;5.05;50.89;100886.53;5025734;28;20046;-58
2022/04/03 09:01:46;;;;;;;19.40;7.35;;;;;;;4.96;51.25;100881.22;5024721;28;20061;-58
2022/04/03 09:04:20;;;;;;;16.67;6.30;;;;;;;4.98;51.91;100884.69;5025030;28;20065;-58
2022/04/03 09:06:59;;;;;;;23.00;7.50;;;;;;;5.02;52.06;100889.09;5025854;28;20719;-57
2022/04/03 09:09:30;;;;;;;20.77;7.72;;;;;;;5.05;52.25;100880.50;5025423;28;20054;-58
2022/04/03 09:12:15;;;;;;;21.15;6.10;;;;;;;5.03;51.84;100875.28;5025259;28;20061;-57
2022/04/03 09:14:50;;;;;;;23.58;6.90;;;;;;;5.11;52.37;100876.25;5025459;28;20061;-56
2022/04/03 09:17:36;;;;;;;20.52;6.80;;;;;;;5.13;52.28;100887.53;5024549;28;20074;-57
2022/04/03 09:20:09;;;;;;;20.48;6.13;;;;;;;5.02;52.85;100891.69;5025852;28;20080;-58
2022/04/03 09:22:41;;;;;;;25.30;6.82;;;;;;;4.92;52.70;100894.97;5025330;28;20045;-58
2022/04/03 09:25:13;;;;;;;17.67;7.07;;;;;;;4.95;52.81;100900.19;5025526;28;20447;-58
2022/04/03 09:27:49;;;;;;;23.92;7.25;;;;;;;4.96;52.40;100900.19;5025024;28;20053;-58
2022/04/03 09:30:22;;;;;;;25.48;7.70;;;;;;;4.89;53.11;100907.84;5024675;28;20343;-57
2022/04/03 09:32:56;;;;;;;27.90;9.23;;;;;;;4.53;52.99;100852.00;5024149;28;20121;-57
2022/04/03 09:35:29;;;;;;;29.58;6.85;;;;;;;4.85;52.93;100916.44;5024718;28;20062;-58
2022/04/03 09:38:11;;;;;;;24.05;8.02;;;;;;;4.53;53.31;100881.34;5025161;28;20065;-57
2022/04/03 09:40:43;;;;;;;20.92;7.10;;;;;;;4.72;53.42;100913.63;5025328;28;20644;-57
2022/04/03 09:43:18;;;;;;;23.02;7.32;;;;;;;4.85;53.10;100934.56;5025036;28;20242;-57
2022/04/03 09:45:52;;;;;;;31.90;9.27;;;;;;;4.85;53.30;100944.91;5025579;28;20054;-57
2022/04/03 09:48:26;;;;;;;31.20;10.05;;;;;;;4.54;53.02;100892.56;5024764;28;20064;-57
2022/04/03 09:51:08;;;;;;;26.35;7.57;;;;;;;4.66;53.30;100923.84;5024192;28;20037;-55
2022/04/03 09:53:45;;;;;;;22.45;6.70;;;;;;;4.83;53.31;100956.94;5023513;28;20058;-57
2022/04/03 09:56:17;;;;;;;20.85;6.10;;;;;;;4.74;53.89;100953.34;5022121;28;20487;-57
2022/04/03 09:58:59;;;;;;;37.35;7.38;;;;;;;4.80;53.49;100962.06;5024521;28;20083;-57
2022/04/03 10:01:31;;;;;;;24.92;7.00;;;;;;;4.54;53.76;100926.19;5025021;28;20061;-57
2022/04/03 10:04:05;;;;;;;27.90;7.68;;;;;;;4.61;53.95;100951.34;5024916;28;20129;-57
2022/04/03 10:06:38;;;;;;;24.75;6.90;;;;;;;4.70;54.10;100972.25;5023776;28;20288;-57
2022/04/03 10:09:11;;;;;;;26.90;6.93;;;;;;;4.60;54.21;100974.66;5023917;28;20073;-58
2022/04/03 10:11:42;;;;;;;22.77;6.57;;;;;;;4.58;54.36;100987.53;5023478;28;20062;-57
2022/04/03 10:14:13;;;;;;;17.88;6.90;;;;;;;4.58;54.33;100987.53;5023288;28;20053;-58
2022/04/03 10:16:44;;;;;;;25.77;6.57;;;;;;;4.56;54.74;100984.06;5023812;28;20125;-57
2022/04/03 10:19:16;;;;;;;23.65;6.78;;;;;;;4.54;54.81;100990.91;5022954;28;20053;-58
2022/04/03 10:21:50;;;;;;;22.45;6.55;;;;;;;4.51;55.35;100990.84;5024182;28;20343;-57
2022/04/03 10:24:23;;;;;;;33.75;7.32;;;;;;;4.57;55.54;100996.16;5022988;28;20121;-58
2022/04/03 10:27:00;;;;;;;28.85;6.50;;;;;;;4.51;56.17;100988.25;5022398;28;20129;-58
2022/04/03 10:29:33;;;;;;;21.17;6.45;;;;;;;4.44;56.67;100994.16;5023139;28;20108;-60
2022/04/03 10:32:05;;;;;;;22.23;5.97;;;;;;;4.47;57.12;100999.41;5022522;28;20646;-58
2022/04/03 10:34:49;;;;;;;27.85;6.57;;;;;;;4.00;57.23;100940.66;5023577;28;20410;-58
2022/04/03 10:37:29;;;;;;;25.45;6.72;;;;;;;4.35;57.69;101009.50;5023033;28;20050;-58
2022/04/03 10:40:06;;;;;;;24.05;7.20;;;;;;;4.41;57.84;101014.81;5023251;28;20057;-57
2022/04/03 10:42:51;;;;;;;27.67;6.30;;;;;;;4.41;58.24;101015.66;5024565;28;20280;-58
2022/04/03 10:45:27;;;;;;;20.10;6.82;;;;;;;4.40;57.75;101018.25;5024322;28;20202;-58
2022/04/03 10:48:29;;;;;;;24.52;6.75;;;;;;;4.37;58.39;101008.69;5024329;28;20095;-58
2022/04/03 10:51:04;;;;;;;24.38;6.90;;;;;;;4.30;59.05;101007.69;5023129;28;20060;-58
2022/04/03 10:53:37;;;;;;;32.92;8.02;;;;;;;4.32;58.81;101021.53;5022107;28;20046;-58
2022/04/03 10:56:12;;;;;;;25.38;7.22;;;;;;;4.22;59.56;101009.25;5021687;28;20056;-58
2022/04/03 10:58:46;;;;;;;29.70;8.85;;;;;;;4.27;59.34;101017.97;5020883;28;20072;-58
2022/04/03 11:01:28;;;;;;;24.25;6.90;;;;;;;3.95;59.19;100959.53;5022021;28;20088;-58
2022/04/03 11:04:03;;;;;;;26.17;6.47;;;;;;;4.38;59.23;101017.31;5023440;28;20057;-58
2022/04/03 11:06:38;;;;;;;23.70;7.68;;;;;;;4.35;59.27;101027.63;5022942;28;20390;-56
2022/04/03 11:09:10;;;;;;;25.88;7.07;;;;;;;4.27;59.72;101028.31;5024173;28;20053;-57
2022/04/03 11:11:50;;;;;;;25.92;6.75;;;;;;;4.22;59.84;101024.78;5023917;28;20120;-57
2022/04/03 11:14:55;;;;;;;26.52;7.13;;;;;;;4.18;59.82;101030.72;5022750;28;20053;-56
2022/04/03 11:17:51;;;;;;;28.48;6.82;;;;;;;4.15;59.68;101022.88;5023824;28;20395;-58
2022/04/03 11:20:38;;;;;;;22.88;7.07;;;;;;;4.12;59.97;101028.00;5023904;28;20049;-58
2022/04/03 11:23:16;;;;;;;34.70;7.28;;;;;;;4.07;60.23;101019.28;5022574;28;20352;-57
2022/04/03 11:25:47;;;;;;;26.65;7.70;;;;;;;4.09;60.56;101022.72;5027067;28;20844;-57
2022/04/03 11:28:20;;;;;;;31.27;8.90;;;;;;;3.87;60.34;100996.41;5027117;28;20053;-57
2022/04/03 11:30:52;;;;;;;32.15;8.65;;;;;;;4.14;60.79;101010.78;5026867;28;20062;-57
2022/04/03 11:33:23;;;;;;;25.08;7.03;;;;;;;4.15;60.78;101012.53;5026808;28;20116;-57
2022/04/03 11:35:54;;;;;;;20.45;7.15;;;;;;;4.18;61.02;101017.78;5026914;28;20064;-57
2022/04/03 11:38:36;;;;;;;27.75;6.68;;;;;;;4.16;60.90;101003.94;5027796;28;20069;-58
2022/04/03 11:41:07;;;;;;;28.00;7.18;;;;;;;4.14;61.07;101015.94;5027453;28;20080;-57
2022/04/03 11:43:39;;;;;;;28.85;7.20;;;;;;;4.08;60.66;101019.28;5026312;28;20061;-57
2022/04/03 11:46:11;;;;;;;23.00;6.80;;;;;;;4.09;61.17;101012.38;5027015;28;20407;-56
2022/04/03 11:48:45;;;;;;;27.50;6.30;;;;;;;4.07;61.24;101008.94;5027305;28;20093;-57